sensor_id;sensor_type;location;lat;lon;timestamp;P1;durP1;ratioP1;P2;durP2;ratioP2
71366;SDS011;60030;52.274;8.040;2023-01-10T00:00:54;5.53;;;2.90;;
71366;SDS011;60030;52.274;8.040;2023-01-10T00:03:21;7.50;;;2.83;;
71366;SDS011;60030;52.274;8.040;2023-01-10T00:05:48;4.57;;;2.60;;
71366;SDS011;60030;52.274;8.040;2023-01-10T00:08:15;7.13;;;2.80;;
71366;SDS011;60030;52.274;8.040;2023-01-10T00:10:43;6.30;;;2.20;;
71366;SDS011;60030;52.274;8.040;2023-01-10T00:13:14;4.37;;;1.93;;
71366;SDS011;60030;52.274;8.040;2023-01-10T00:15:50;4.77;;;1.70;;
71366;SDS011;60030;52.274;8.040;2023-01-10T00:18:17;2.77;;;1.77;;
71366;SDS011;60030;52.274;8.040;2023-01-10T00:20:45;4.63;;;1.63;;
71366;SDS011;60030;52.274;8.040;2023-01-10T00:23:13;4.93;;;1.50;;
71366;SDS011;60030;52.274;8.040;2023-01-10T00:25:41;3.87;;;1.80;;
71366;SDS011;60030;52.274;8.040;2023-01-10T00:28:08;3.33;;;1.50;;
71366;SDS011;60030;52.274;8.040;2023-01-10T00:30:47;2.40;;;1.20;;
71366;SDS011;60030;52.274;8.040;2023-01-10T00:33:24;2.93;;;1.10;;
71366;SDS011;60030;52.274;8.040;2023-01-10T00:35:51;2.40;;;1.17;;
71366;SDS011;60030;52.274;8.040;2023-01-10T00:38:18;6.07;;;1.30;;
71366;SDS011;60030;52.274;8.040;2023-01-10T00:40:45;3.60;;;1.00;;
71366;SDS011;60030;52.274;8.040;2023-01-10T00:43:12;4.50;;;1.50;;
71366;SDS011;60030;52.274;8.040;2023-01-10T00:45:58;2.90;;;0.90;;
71366;SDS011;60030;52.274;8.040;2023-01-10T00:48:27;2.87;;;1.00;;
71366;SDS011;60030;52.274;8.040;2023-01-10T00:50:54;3.83;;;1.20;;
71366;SDS011;60030;52.274;8.040;2023-01-10T00:53:21;3.87;;;1.13;;
71366;SDS011;60030;52.274;8.040;2023-01-10T00:55:48;3.53;;;1.33;;
71366;SDS011;60030;52.274;8.040;2023-01-10T00:58:16;4.40;;;1.57;;
71366;SDS011;60030;52.274;8.040;2023-01-10T01:00:43;4.20;;;1.67;;
71366;SDS011;60030;52.274;8.040;2023-01-10T01:03:15;4.73;;;1.70;;
71366;SDS011;60030;52.274;8.040;2023-01-10T01:05:44;6.33;;;2.10;;
71366;SDS011;60030;52.274;8.040;2023-01-10T01:08:13;7.10;;;2.30;;
71366;SDS011;60030;52.274;8.040;2023-01-10T01:10:41;5.93;;;2.43;;
71366;SDS011;60030;52.274;8.040;2023-01-10T01:13:11;12.63;;;2.63;;
71366;SDS011;60030;52.274;8.040;2023-01-10T01:15:39;7.97;;;2.40;;
71366;SDS011;60030;52.274;8.040;2023-01-10T01:18:08;5.83;;;2.70;;
71366;SDS011;60030;52.274;8.040;2023-01-10T01:20:39;5.07;;;2.53;;
71366;SDS011;60030;52.274;8.040;2023-01-10T01:23:06;7.07;;;2.63;;
71366;SDS011;60030;52.274;8.040;2023-01-10T01:25:33;8.90;;;2.50;;
71366;SDS011;60030;52.274;8.040;2023-01-10T01:28:00;6.57;;;2.53;;
71366;SDS011;60030;52.274;8.040;2023-01-10T01:30:27;6.90;;;2.53;;
71366;SDS011;60030;52.274;8.040;2023-01-10T01:32:54;9.47;;;2.13;;
71366;SDS011;60030;52.274;8.040;2023-01-10T01:35:22;10.73;;;2.60;;
71366;SDS011;60030;52.274;8.040;2023-01-10T01:37:51;9.10;;;3.07;;
71366;SDS011;60030;52.274;8.040;2023-01-10T01:40:19;10.47;;;3.10;;
71366;SDS011;60030;52.274;8.040;2023-01-10T01:42:47;7.40;;;3.30;;
71366;SDS011;60030;52.274;8.040;2023-01-10T01:45:30;7.87;;;3.40;;
71366;SDS011;60030;52.274;8.040;2023-01-10T01:48:02;11.17;;;3.00;;
71366;SDS011;60030;52.274;8.040;2023-01-10T01:50:36;10.77;;;3.87;;
71366;SDS011;60030;52.274;8.040;2023-01-10T01:53:08;10.50;;;3.33;;
71366;SDS011;60030;52.274;8.040;2023-01-10T01:55:37;11.27;;;4.00;;
71366;SDS011;60030;52.274;8.040;2023-01-10T01:58:06;9.80;;;3.93;;
71366;SDS011;60030;52.274;8.040;2023-01-10T02:00:36;7.90;;;3.73;;
71366;SDS011;60030;52.274;8.040;2023-01-10T02:03:03;8.90;;;3.33;;
71366;SDS011;60030;52.274;8.040;2023-01-10T02:05:31;7.80;;;3.30;;
71366;SDS011;60030;52.274;8.040;2023-01-10T02:08:02;9.10;;;4.00;;
71366;SDS011;60030;52.274;8.040;2023-01-10T02:10:31;8.07;;;3.43;;
71366;SDS011;60030;52.274;8.040;2023-01-10T02:13:03;9.63;;;3.83;;
71366;SDS011;60030;52.274;8.040;2023-01-10T02:15:32;12.17;;;3.87;;
71366;SDS011;60030;52.274;8.040;2023-01-10T02:17:59;8.70;;;3.90;;
71366;SDS011;60030;52.274;8.040;2023-01-10T02:20:29;10.10;;;3.57;;
71366;SDS011;60030;52.274;8.040;2023-01-10T02:23:09;11.23;;;3.47;;
71366;SDS011;60030;52.274;8.040;2023-01-10T02:29:07;9.83;;;3.93;;
71366;SDS011;60030;52.274;8.040;2023-01-10T02:32:12;7.07;;;3.17;;
71366;SDS011;60030;52.274;8.040;2023-01-10T02:34:49;9.97;;;3.33;;
71366;SDS011;60030;52.274;8.040;2023-01-10T02:37:29;8.67;;;2.67;;
71366;SDS011;60030;52.274;8.040;2023-01-10T02:40:07;5.77;;;3.07;;
71366;SDS011;60030;52.274;8.040;2023-01-10T02:42:41;12.40;;;3.37;;
71366;SDS011;60030;52.274;8.040;2023-01-10T02:45:13;10.83;;;3.23;;
71366;SDS011;60030;52.274;8.040;2023-01-10T02:47:47;11.67;;;3.13;;
71366;SDS011;60030;52.274;8.040;2023-01-10T02:50:28;11.20;;;3.53;;
71366;SDS011;60030;52.274;8.040;2023-01-10T02:53:01;8.53;;;3.10;;
71366;SDS011;60030;52.274;8.040;2023-01-10T02:55:33;10.60;;;3.80;;
71366;SDS011;60030;52.274;8.040;2023-01-10T02:58:15;10.43;;;3.17;;
71366;SDS011;60030;52.274;8.040;2023-01-10T03:00:51;10.13;;;3.20;;
71366;SDS011;60030;52.274;8.040;2023-01-10T03:03:27;10.23;;;3.60;;
71366;SDS011;60030;52.274;8.040;2023-01-10T03:06:07;12.80;;;3.47;;
71366;SDS011;60030;52.274;8.040;2023-01-10T03:08:46;13.13;;;3.17;;
71366;SDS011;60030;52.274;8.040;2023-01-10T03:11:17;8.17;;;3.37;;
71366;SDS011;60030;52.274;8.040;2023-01-10T03:14:04;6.33;;;2.93;;
71366;SDS011;60030;52.274;8.040;2023-01-10T03:16:33;7.20;;;2.33;;
71366;SDS011;60030;52.274;8.040;2023-01-10T03:19:06;10.97;;;3.13;;
71366;SDS011;60030;52.274;8.040;2023-01-10T03:21:36;8.83;;;3.27;;
71366;SDS011;60030;52.274;8.040;2023-01-10T03:24:06;10.43;;;3.67;;
71366;SDS011;60030;52.274;8.040;2023-01-10T03:26:40;10.20;;;3.63;;
71366;SDS011;60030;52.274;8.040;2023-01-10T03:29:15;9.03;;;3.50;;
71366;SDS011;60030;52.274;8.040;2023-01-10T03:31:47;7.10;;;3.50;;
71366;SDS011;60030;52.274;8.040;2023-01-10T03:34:20;10.00;;;3.73;;
71366;SDS011;60030;52.274;8.040;2023-01-10T03:36:50;8.83;;;3.53;;
71366;SDS011;60030;52.274;8.040;2023-01-10T03:39:27;9.73;;;4.03;;
71366;SDS011;60030;52.274;8.040;2023-01-10T03:42:01;7.87;;;3.57;;
71366;SDS011;60030;52.274;8.040;2023-01-10T03:44:36;13.50;;;3.67;;
71366;SDS011;60030;52.274;8.040;2023-01-10T03:47:10;7.70;;;3.70;;
71366;SDS011;60030;52.274;8.040;2023-01-10T03:49:46;8.10;;;3.83;;
71366;SDS011;60030;52.274;8.040;2023-01-10T03:52:15;12.43;;;4.33;;
71366;SDS011;60030;52.274;8.040;2023-01-10T03:54:44;8.10;;;3.70;;
71366;SDS011;60030;52.274;8.040;2023-01-10T03:57:16;11.93;;;3.97;;
71366;SDS011;60030;52.274;8.040;2023-01-10T03:59:45;8.77;;;4.27;;
71366;SDS011;60030;52.274;8.040;2023-01-10T04:02:14;11.73;;;4.50;;
71366;SDS011;60030;52.274;8.040;2023-01-10T04:04:41;13.27;;;4.47;;
71366;SDS011;60030;52.274;8.040;2023-01-10T04:07:09;13.47;;;4.20;;
71366;SDS011;60030;52.274;8.040;2023-01-10T04:09:36;10.87;;;4.03;;
71366;SDS011;60030;52.274;8.040;2023-01-10T04:12:03;11.13;;;4.23;;
71366;SDS011;60030;52.274;8.040;2023-01-10T04:14:31;7.20;;;4.17;;
71366;SDS011;60030;52.274;8.040;2023-01-10T04:16:58;10.33;;;3.53;;
71366;SDS011;60030;52.274;8.040;2023-01-10T04:19:25;10.67;;;3.50;;
71366;SDS011;60030;52.274;8.040;2023-01-10T04:21:52;11.63;;;3.63;;
71366;SDS011;60030;52.274;8.040;2023-01-10T04:24:20;7.87;;;3.93;;
71366;SDS011;60030;52.274;8.040;2023-01-10T04:26:47;10.90;;;3.93;;
71366;SDS011;60030;52.274;8.040;2023-01-10T04:29:14;16.03;;;4.03;;
71366;SDS011;60030;52.274;8.040;2023-01-10T04:31:41;13.03;;;3.53;;
71366;SDS011;60030;52.274;8.040;2023-01-10T04:34:09;15.00;;;4.63;;
71366;SDS011;60030;52.274;8.040;2023-01-10T04:36:36;13.53;;;4.17;;
71366;SDS011;60030;52.274;8.040;2023-01-10T04:39:03;13.30;;;3.77;;
71366;SDS011;60030;52.274;8.040;2023-01-10T04:41:32;13.37;;;3.90;;
71366;SDS011;60030;52.274;8.040;2023-01-10T04:43:59;8.80;;;3.27;;
71366;SDS011;60030;52.274;8.040;2023-01-10T04:46:26;9.50;;;3.50;;
71366;SDS011;60030;52.274;8.040;2023-01-10T04:48:53;6.93;;;3.63;;
71366;SDS011;60030;52.274;8.040;2023-01-10T04:51:20;11.80;;;3.93;;
71366;SDS011;60030;52.274;8.040;2023-01-10T04:53:47;11.13;;;3.27;;
71366;SDS011;60030;52.274;8.040;2023-01-10T04:56:15;13.97;;;3.73;;
71366;SDS011;60030;52.274;8.040;2023-01-10T04:58:45;9.83;;;3.93;;
71366;SDS011;60030;52.274;8.040;2023-01-10T05:01:13;10.60;;;3.77;;
71366;SDS011;60030;52.274;8.040;2023-01-10T05:03:42;8.40;;;3.93;;
71366;SDS011;60030;52.274;8.040;2023-01-10T05:06:09;10.00;;;3.57;;
71366;SDS011;60030;52.274;8.040;2023-01-10T05:08:36;10.23;;;3.23;;
71366;SDS011;60030;52.274;8.040;2023-01-10T05:11:03;12.90;;;3.93;;
71366;SDS011;60030;52.274;8.040;2023-01-10T05:13:30;8.33;;;2.77;;
71366;SDS011;60030;52.274;8.040;2023-01-10T05:15:59;9.47;;;3.30;;
71366;SDS011;60030;52.274;8.040;2023-01-10T05:18:27;15.57;;;3.00;;
71366;SDS011;60030;52.274;8.040;2023-01-10T05:20:58;5.87;;;2.97;;
71366;SDS011;60030;52.274;8.040;2023-01-10T05:23:25;9.50;;;3.73;;
71366;SDS011;60030;52.274;8.040;2023-01-10T05:25:53;13.83;;;3.67;;
71366;SDS011;60030;52.274;8.040;2023-01-10T05:28:20;11.73;;;3.47;;
71366;SDS011;60030;52.274;8.040;2023-01-10T05:30:48;9.17;;;3.60;;
71366;SDS011;60030;52.274;8.040;2023-01-10T05:33:16;7.47;;;3.17;;
71366;SDS011;60030;52.274;8.040;2023-01-10T05:35:43;9.53;;;3.40;;
71366;SDS011;60030;52.274;8.040;2023-01-10T05:38:10;7.30;;;3.00;;
71366;SDS011;60030;52.274;8.040;2023-01-10T05:40:37;12.10;;;3.90;;
71366;SDS011;60030;52.274;8.040;2023-01-10T05:43:04;12.57;;;4.30;;
71366;SDS011;60030;52.274;8.040;2023-01-10T05:45:31;7.90;;;3.30;;
71366;SDS011;60030;52.274;8.040;2023-01-10T05:47:58;9.33;;;3.30;;
71366;SDS011;60030;52.274;8.040;2023-01-10T05:50:27;9.17;;;3.13;;
71366;SDS011;60030;52.274;8.040;2023-01-10T05:52:58;12.00;;;4.23;;
71366;SDS011;60030;52.274;8.040;2023-01-10T05:55:28;11.57;;;3.50;;
71366;SDS011;60030;52.274;8.040;2023-01-10T05:57:55;8.30;;;3.10;;
71366;SDS011;60030;52.274;8.040;2023-01-10T06:00:23;9.53;;;3.70;;
71366;SDS011;60030;52.274;8.040;2023-01-10T06:02:50;11.40;;;4.00;;
71366;SDS011;60030;52.274;8.040;2023-01-10T06:05:19;14.30;;;3.90;;
71366;SDS011;60030;52.274;8.040;2023-01-10T06:07:48;12.23;;;3.67;;
71366;SDS011;60030;52.274;8.040;2023-01-10T06:10:15;12.97;;;3.57;;
71366;SDS011;60030;52.274;8.040;2023-01-10T06:12:43;8.07;;;3.40;;
71366;SDS011;60030;52.274;8.040;2023-01-10T06:15:11;14.70;;;3.63;;
71366;SDS011;60030;52.274;8.040;2023-01-10T06:17:38;14.40;;;4.00;;
71366;SDS011;60030;52.274;8.040;2023-01-10T06:20:05;8.27;;;3.03;;
71366;SDS011;60030;52.274;8.040;2023-01-10T06:22:33;8.43;;;3.77;;
71366;SDS011;60030;52.274;8.040;2023-01-10T06:25:01;8.27;;;3.53;;
71366;SDS011;60030;52.274;8.040;2023-01-10T06:27:29;11.73;;;3.67;;
71366;SDS011;60030;52.274;8.040;2023-01-10T06:29:56;11.13;;;4.03;;
71366;SDS011;60030;52.274;8.040;2023-01-10T06:32:23;12.23;;;4.07;;
71366;SDS011;60030;52.274;8.040;2023-01-10T06:34:51;9.70;;;3.60;;
71366;SDS011;60030;52.274;8.040;2023-01-10T06:37:18;12.97;;;4.70;;
71366;SDS011;60030;52.274;8.040;2023-01-10T06:39:45;10.63;;;3.73;;
71366;SDS011;60030;52.274;8.040;2023-01-10T06:42:13;13.17;;;4.80;;
71366;SDS011;60030;52.274;8.040;2023-01-10T06:44:40;13.57;;;4.90;;
71366;SDS011;60030;52.274;8.040;2023-01-10T06:47:07;13.37;;;4.83;;
71366;SDS011;60030;52.274;8.040;2023-01-10T06:49:34;15.47;;;4.77;;
71366;SDS011;60030;52.274;8.040;2023-01-10T06:52:01;10.80;;;4.27;;
71366;SDS011;60030;52.274;8.040;2023-01-10T06:54:28;13.23;;;4.70;;
71366;SDS011;60030;52.274;8.040;2023-01-10T06:56:55;10.80;;;4.10;;
71366;SDS011;60030;52.274;8.040;2023-01-10T06:59:24;9.83;;;4.60;;
71366;SDS011;60030;52.274;8.040;2023-01-10T07:01:51;12.53;;;4.80;;
71366;SDS011;60030;52.274;8.040;2023-01-10T07:04:18;14.90;;;4.90;;
71366;SDS011;60030;52.274;8.040;2023-01-10T07:06:45;10.53;;;4.60;;
71366;SDS011;60030;52.274;8.040;2023-01-10T07:09:12;13.60;;;4.53;;
71366;SDS011;60030;52.274;8.040;2023-01-10T07:11:39;10.17;;;4.20;;
71366;SDS011;60030;52.274;8.040;2023-01-10T07:14:06;17.73;;;5.13;;
71366;SDS011;60030;52.274;8.040;2023-01-10T07:16:35;11.00;;;4.63;;
71366;SDS011;60030;52.274;8.040;2023-01-10T07:19:02;13.17;;;4.73;;
71366;SDS011;60030;52.274;8.040;2023-01-10T07:21:29;13.40;;;4.93;;
71366;SDS011;60030;52.274;8.040;2023-01-10T07:23:56;13.37;;;5.60;;
71366;SDS011;60030;52.274;8.040;2023-01-10T07:26:23;10.67;;;4.57;;
71366;SDS011;60030;52.274;8.040;2023-01-10T07:28:50;14.37;;;5.43;;
71366;SDS011;60030;52.274;8.040;2023-01-10T07:31:18;13.30;;;5.23;;
71366;SDS011;60030;52.274;8.040;2023-01-10T07:33:49;10.53;;;5.67;;
71366;SDS011;60030;52.274;8.040;2023-01-10T07:36:17;12.50;;;5.03;;
71366;SDS011;60030;52.274;8.040;2023-01-10T07:38:44;17.10;;;5.20;;
71366;SDS011;60030;52.274;8.040;2023-01-10T07:41:11;9.50;;;5.10;;
71366;SDS011;60030;52.274;8.040;2023-01-10T07:43:38;16.10;;;5.63;;
71366;SDS011;60030;52.274;8.040;2023-01-10T07:46:05;21.73;;;5.47;;
71366;SDS011;60030;52.274;8.040;2023-01-10T07:48:33;13.83;;;6.03;;
71366;SDS011;60030;52.274;8.040;2023-01-10T07:51:02;14.30;;;5.50;;
71366;SDS011;60030;52.274;8.040;2023-01-10T07:53:30;13.53;;;5.90;;
71366;SDS011;60030;52.274;8.040;2023-01-10T07:55:58;10.20;;;5.53;;
71366;SDS011;60030;52.274;8.040;2023-01-10T07:58:26;10.80;;;5.47;;
71366;SDS011;60030;52.274;8.040;2023-01-10T08:00:55;19.37;;;6.43;;
71366;SDS011;60030;52.274;8.040;2023-01-10T08:03:23;15.07;;;6.07;;
71366;SDS011;60030;52.274;8.040;2023-01-10T08:05:56;21.97;;;6.63;;
71366;SDS011;60030;52.274;8.040;2023-01-10T08:08:25;14.93;;;5.57;;
71366;SDS011;60030;52.274;8.040;2023-01-10T08:10:53;11.63;;;5.30;;
71366;SDS011;60030;52.274;8.040;2023-01-10T08:13:20;17.57;;;5.60;;
71366;SDS011;60030;52.274;8.040;2023-01-10T08:15:47;14.80;;;5.60;;
71366;SDS011;60030;52.274;8.040;2023-01-10T08:18:17;15.50;;;5.27;;
71366;SDS011;60030;52.274;8.040;2023-01-10T08:20:44;13.77;;;4.73;;
71366;SDS011;60030;52.274;8.040;2023-01-10T08:23:13;17.83;;;6.07;;
71366;SDS011;60030;52.274;8.040;2023-01-10T08:25:42;16.50;;;6.40;;
71366;SDS011;60030;52.274;8.040;2023-01-10T08:28:09;16.10;;;5.77;;
71366;SDS011;60030;52.274;8.040;2023-01-10T08:30:36;12.83;;;5.10;;
71366;SDS011;60030;52.274;8.040;2023-01-10T08:33:05;17.07;;;5.20;;
71366;SDS011;60030;52.274;8.040;2023-01-10T08:35:35;13.90;;;4.83;;
71366;SDS011;60030;52.274;8.040;2023-01-10T08:38:02;16.90;;;6.27;;
71366;SDS011;60030;52.274;8.040;2023-01-10T08:40:30;11.60;;;4.67;;
71366;SDS011;60030;52.274;8.040;2023-01-10T08:43:00;15.10;;;5.17;;
71366;SDS011;60030;52.274;8.040;2023-01-10T08:45:28;16.57;;;5.40;;
71366;SDS011;60030;52.274;8.040;2023-01-10T08:47:55;14.17;;;4.97;;
71366;SDS011;60030;52.274;8.040;2023-01-10T08:50:22;18.13;;;5.27;;
71366;SDS011;60030;52.274;8.040;2023-01-10T08:52:50;14.83;;;4.63;;
71366;SDS011;60030;52.274;8.040;2023-01-10T08:55:17;12.87;;;4.60;;
71366;SDS011;60030;52.274;8.040;2023-01-10T08:57:44;13.97;;;5.20;;
71366;SDS011;60030;52.274;8.040;2023-01-10T09:00:13;18.30;;;5.40;;
71366;SDS011;60030;52.274;8.040;2023-01-10T09:02:41;9.50;;;4.50;;
71366;SDS011;60030;52.274;8.040;2023-01-10T09:05:08;12.33;;;4.90;;
71366;SDS011;60030;52.274;8.040;2023-01-10T09:07:36;12.17;;;5.60;;
71366;SDS011;60030;52.274;8.040;2023-01-10T09:10:05;15.13;;;5.13;;
71366;SDS011;60030;52.274;8.040;2023-01-10T09:12:33;13.87;;;5.73;;
71366;SDS011;60030;52.274;8.040;2023-01-10T09:15:19;20.60;;;6.20;;
71366;SDS011;60030;52.274;8.040;2023-01-10T09:17:47;11.03;;;5.63;;
71366;SDS011;60030;52.274;8.040;2023-01-10T09:20:15;22.57;;;6.17;;
71366;SDS011;60030;52.274;8.040;2023-01-10T09:22:42;18.90;;;6.40;;
71366;SDS011;60030;52.274;8.040;2023-01-10T09:25:09;16.17;;;6.47;;
71366;SDS011;60030;52.274;8.040;2023-01-10T09:27:36;12.53;;;6.50;;
71366;SDS011;60030;52.274;8.040;2023-01-10T09:30:04;16.47;;;5.93;;
71366;SDS011;60030;52.274;8.040;2023-01-10T09:32:32;23.70;;;6.47;;
71366;SDS011;60030;52.274;8.040;2023-01-10T09:35:00;18.27;;;7.03;;
71366;SDS011;60030;52.274;8.040;2023-01-10T09:37:27;21.53;;;7.23;;
71366;SDS011;60030;52.274;8.040;2023-01-10T09:39:54;20.63;;;7.20;;
71366;SDS011;60030;52.274;8.040;2023-01-10T09:42:25;15.93;;;6.87;;
71366;SDS011;60030;52.274;8.040;2023-01-10T09:45:02;16.33;;;6.27;;
71366;SDS011;60030;52.274;8.040;2023-01-10T09:47:40;18.70;;;6.60;;
71366;SDS011;60030;52.274;8.040;2023-01-10T09:50:16;16.90;;;6.70;;
71366;SDS011;60030;52.274;8.040;2023-01-10T09:52:48;17.07;;;6.27;;
71366;SDS011;60030;52.274;8.040;2023-01-10T09:55:22;16.37;;;6.40;;
71366;SDS011;60030;52.274;8.040;2023-01-10T09:57:53;20.87;;;6.70;;
71366;SDS011;60030;52.274;8.040;2023-01-10T10:00:23;12.60;;;6.10;;
71366;SDS011;60030;52.274;8.040;2023-01-10T10:03:00;14.23;;;6.73;;
71366;SDS011;60030;52.274;8.040;2023-01-10T10:05:30;20.90;;;6.57;;
71366;SDS011;60030;52.274;8.040;2023-01-10T10:07:59;19.80;;;6.27;;
71366;SDS011;60030;52.274;8.040;2023-01-10T10:10:29;15.70;;;6.33;;
71366;SDS011;60030;52.274;8.040;2023-01-10T10:13:07;16.50;;;6.07;;
71366;SDS011;60030;52.274;8.040;2023-01-10T10:15:45;16.87;;;5.80;;
71366;SDS011;60030;52.274;8.040;2023-01-10T10:18:23;19.60;;;5.83;;
71366;SDS011;60030;52.274;8.040;2023-01-10T10:20:57;13.83;;;5.53;;
71366;SDS011;60030;52.274;8.040;2023-01-10T10:26:46;17.00;;;7.10;;
71366;SDS011;60030;52.274;8.040;2023-01-10T10:32:28;19.07;;;7.43;;
71366;SDS011;60030;52.274;8.040;2023-01-10T10:35:06;17.53;;;6.17;;
71366;SDS011;60030;52.274;8.040;2023-01-10T10:37:39;28.50;;;7.40;;
71366;SDS011;60030;52.274;8.040;2023-01-10T10:40:14;21.67;;;7.07;;
71366;SDS011;60030;52.274;8.040;2023-01-10T10:42:44;18.50;;;6.57;;
71366;SDS011;60030;52.274;8.040;2023-01-10T10:45:14;11.47;;;6.33;;
71366;SDS011;60030;52.274;8.040;2023-01-10T10:47:45;21.67;;;6.60;;
71366;SDS011;60030;52.274;8.040;2023-01-10T10:50:20;18.13;;;6.47;;
71366;SDS011;60030;52.274;8.040;2023-01-10T10:52:53;18.40;;;6.87;;
71366;SDS011;60030;52.274;8.040;2023-01-10T10:55:21;18.50;;;5.50;;
71366;SDS011;60030;52.274;8.040;2023-01-10T10:57:54;20.07;;;6.00;;
71366;SDS011;60030;52.274;8.040;2023-01-10T11:00:22;14.67;;;5.60;;
71366;SDS011;60030;52.274;8.040;2023-01-10T11:02:50;12.33;;;4.97;;
71366;SDS011;60030;52.274;8.040;2023-01-10T11:05:27;19.80;;;5.80;;
71366;SDS011;60030;52.274;8.040;2023-01-10T11:07:59;14.67;;;4.80;;
71366;SDS011;60030;52.274;8.040;2023-01-10T11:10:29;19.97;;;6.10;;
71366;SDS011;60030;52.274;8.040;2023-01-10T11:13:01;18.20;;;4.90;;
71366;SDS011;60030;52.274;8.040;2023-01-10T11:15:36;20.30;;;5.37;;
71366;SDS011;60030;52.274;8.040;2023-01-10T11:18:05;13.47;;;5.73;;
71366;SDS011;60030;52.274;8.040;2023-01-10T11:20:46;17.03;;;6.23;;
71366;SDS011;60030;52.274;8.040;2023-01-10T11:23:22;24.10;;;6.03;;
71366;SDS011;60030;52.274;8.040;2023-01-10T11:25:54;18.53;;;5.57;;
71366;SDS011;60030;52.274;8.040;2023-01-10T11:28:23;14.07;;;5.40;;
71366;SDS011;60030;52.274;8.040;2023-01-10T11:30:55;20.07;;;6.57;;
71366;SDS011;60030;52.274;8.040;2023-01-10T11:33:25;24.40;;;6.30;;
71366;SDS011;60030;52.274;8.040;2023-01-10T11:35:57;16.07;;;6.50;;
71366;SDS011;60030;52.274;8.040;2023-01-10T11:38:26;15.03;;;6.00;;
71366;SDS011;60030;52.274;8.040;2023-01-10T11:40:58;21.10;;;5.90;;
71366;SDS011;60030;52.274;8.040;2023-01-10T11:43:28;18.23;;;5.83;;
71366;SDS011;60030;52.274;8.040;2023-01-10T11:45:58;17.10;;;6.43;;
71366;SDS011;60030;52.274;8.040;2023-01-10T11:48:44;22.43;;;6.47;;
71366;SDS011;60030;52.274;8.040;2023-01-10T11:51:16;17.50;;;7.07;;
71366;SDS011;60030;52.274;8.040;2023-01-10T11:53:47;18.63;;;6.47;;
71366;SDS011;60030;52.274;8.040;2023-01-10T11:56:21;15.97;;;6.10;;
71366;SDS011;60030;52.274;8.040;2023-01-10T11:58:51;13.80;;;6.43;;
71366;SDS011;60030;52.274;8.040;2023-01-10T12:01:26;16.17;;;6.87;;
71366;SDS011;60030;52.274;8.040;2023-01-10T12:03:56;21.43;;;6.57;;
71366;SDS011;60030;52.274;8.040;2023-01-10T12:06:25;13.40;;;5.60;;
71366;SDS011;60030;52.274;8.040;2023-01-10T12:08:54;14.83;;;5.77;;
71366;SDS011;60030;52.274;8.040;2023-01-10T12:11:23;18.87;;;5.37;;
71366;SDS011;60030;52.274;8.040;2023-01-10T12:13:54;20.27;;;6.70;;
71366;SDS011;60030;52.274;8.040;2023-01-10T12:16:24;14.87;;;6.20;;
71366;SDS011;60030;52.274;8.040;2023-01-10T12:18:52;17.17;;;5.63;;
71366;SDS011;60030;52.274;8.040;2023-01-10T12:21:22;16.63;;;6.17;;
71366;SDS011;60030;52.274;8.040;2023-01-10T12:23:56;14.83;;;5.27;;
71366;SDS011;60030;52.274;8.040;2023-01-10T12:26:25;17.07;;;6.03;;
71366;SDS011;60030;52.274;8.040;2023-01-10T12:28:56;16.00;;;5.57;;
71366;SDS011;60030;52.274;8.040;2023-01-10T12:31:27;18.07;;;5.50;;
71366;SDS011;60030;52.274;8.040;2023-01-10T12:33:56;18.00;;;6.03;;
71366;SDS011;60030;52.274;8.040;2023-01-10T12:36:33;22.37;;;5.47;;
71366;SDS011;60030;52.274;8.040;2023-01-10T12:39:12;20.03;;;5.67;;
71366;SDS011;60030;52.274;8.040;2023-01-10T12:41:44;16.67;;;5.20;;
71366;SDS011;60030;52.274;8.040;2023-01-10T12:44:35;18.07;;;5.90;;
71366;SDS011;60030;52.274;8.040;2023-01-10T12:47:09;20.73;;;5.53;;
71366;SDS011;60030;52.274;8.040;2023-01-10T12:49:45;18.87;;;5.63;;
71366;SDS011;60030;52.274;8.040;2023-01-10T12:52:19;20.80;;;5.73;;
71366;SDS011;60030;52.274;8.040;2023-01-10T12:54:53;19.10;;;5.90;;
71366;SDS011;60030;52.274;8.040;2023-01-10T12:57:22;13.77;;;5.27;;
71366;SDS011;60030;52.274;8.040;2023-01-10T12:59:54;17.80;;;6.13;;
71366;SDS011;60030;52.274;8.040;2023-01-10T13:02:25;16.03;;;5.67;;
71366;SDS011;60030;52.274;8.040;2023-01-10T13:05:00;19.40;;;6.87;;
71366;SDS011;60030;52.274;8.040;2023-01-10T13:07:32;16.93;;;5.60;;
71366;SDS011;60030;52.274;8.040;2023-01-10T13:10:01;23.30;;;5.60;;
71366;SDS011;60030;52.274;8.040;2023-01-10T13:12:31;18.67;;;6.23;;
71366;SDS011;60030;52.274;8.040;2023-01-10T13:15:03;14.80;;;5.57;;
71366;SDS011;60030;52.274;8.040;2023-01-10T13:17:36;14.37;;;5.03;;
71366;SDS011;60030;52.274;8.040;2023-01-10T13:20:24;18.07;;;5.33;;
71366;SDS011;60030;52.274;8.040;2023-01-10T13:23:12;19.13;;;5.33;;
71366;SDS011;60030;52.274;8.040;2023-01-10T13:25:58;20.37;;;4.43;;
71366;SDS011;60030;52.274;8.040;2023-01-10T13:28:29;16.73;;;4.70;;
71366;SDS011;60030;52.274;8.040;2023-01-10T13:30:59;20.17;;;4.57;;
71366;SDS011;60030;52.274;8.040;2023-01-10T13:33:28;15.73;;;5.07;;
71366;SDS011;60030;52.274;8.040;2023-01-10T13:35:57;18.70;;;4.50;;
71366;SDS011;60030;52.274;8.040;2023-01-10T13:38:37;15.73;;;3.93;;
71366;SDS011;60030;52.274;8.040;2023-01-10T13:41:13;25.60;;;4.70;;
71366;SDS011;60030;52.274;8.040;2023-01-10T13:44:02;14.07;;;3.80;;
71366;SDS011;60030;52.274;8.040;2023-01-10T13:46:35;14.43;;;4.63;;
71366;SDS011;60030;52.274;8.040;2023-01-10T13:57:59;16.73;;;3.80;;
71366;SDS011;60030;52.274;8.040;2023-01-10T14:00:40;15.20;;;4.23;;
71366;SDS011;60030;52.274;8.040;2023-01-10T14:03:35;14.33;;;3.43;;
71366;SDS011;60030;52.274;8.040;2023-01-10T14:06:15;17.30;;;3.70;;
71366;SDS011;60030;52.274;8.040;2023-01-10T14:08:47;15.73;;;3.70;;
71366;SDS011;60030;52.274;8.040;2023-01-10T14:11:18;16.43;;;3.50;;
71366;SDS011;60030;52.274;8.040;2023-01-10T14:13:49;20.10;;;3.43;;
71366;SDS011;60030;52.274;8.040;2023-01-10T14:16:27;12.13;;;3.30;;
71366;SDS011;60030;52.274;8.040;2023-01-10T14:18:59;14.50;;;3.30;;
71366;SDS011;60030;52.274;8.040;2023-01-10T14:21:29;13.87;;;3.30;;
71366;SDS011;60030;52.274;8.040;2023-01-10T14:23:58;10.17;;;3.03;;
71366;SDS011;60030;52.274;8.040;2023-01-10T14:26:30;20.17;;;3.30;;
71366;SDS011;60030;52.274;8.040;2023-01-10T14:28:59;16.50;;;3.60;;
71366;SDS011;60030;52.274;8.040;2023-01-10T14:31:31;15.53;;;3.47;;
71366;SDS011;60030;52.274;8.040;2023-01-10T14:34:01;17.20;;;3.73;;
71366;SDS011;60030;52.274;8.040;2023-01-10T14:36:30;14.67;;;3.20;;
71366;SDS011;60030;52.274;8.040;2023-01-10T14:39:04;14.70;;;3.30;;
71366;SDS011;60030;52.274;8.040;2023-01-10T14:41:35;16.33;;;3.53;;
71366;SDS011;60030;52.274;8.040;2023-01-10T14:44:07;18.53;;;5.60;;
71366;SDS011;60030;52.274;8.040;2023-01-10T14:46:42;15.13;;;3.77;;
71366;SDS011;60030;52.274;8.040;2023-01-10T14:49:20;23.17;;;5.07;;
71366;SDS011;60030;52.274;8.040;2023-01-10T14:51:49;15.27;;;4.17;;
71366;SDS011;60030;52.274;8.040;2023-01-10T14:54:17;23.60;;;3.80;;
71366;SDS011;60030;52.274;8.040;2023-01-10T14:56:48;14.63;;;3.40;;
71366;SDS011;60030;52.274;8.040;2023-01-10T14:59:16;14.73;;;3.90;;
71366;SDS011;60030;52.274;8.040;2023-01-10T15:01:48;15.63;;;3.87;;
71366;SDS011;60030;52.274;8.040;2023-01-10T15:04:17;12.10;;;3.20;;
71366;SDS011;60030;52.274;8.040;2023-01-10T15:06:49;16.47;;;3.63;;
71366;SDS011;60030;52.274;8.040;2023-01-10T15:09:17;15.23;;;3.47;;
71366;SDS011;60030;52.274;8.040;2023-01-10T15:11:44;15.17;;;3.37;;
71366;SDS011;60030;52.274;8.040;2023-01-10T15:14:14;15.13;;;3.50;;
71366;SDS011;60030;52.274;8.040;2023-01-10T15:16:43;14.23;;;4.23;;